createdAt,value
2019-02-18T00:02:20.193Z,20.12
2019-02-18T00:08:36.876Z,20.90
2019-02-18T00:11:15.647Z,21.67
2019-02-18T00:13:54.288Z,20.80
2019-02-18T00:16:32.724Z,21.68
2019-02-18T00:19:06.652Z,23.33
2019-02-18T00:21:51.672Z,23.63
2019-02-18T00:24:26.285Z,23.95
2019-02-18T00:27:10.014Z,24.60
2019-02-18T00:29:57.035Z,22.77
2019-02-18T00:40:45.711Z,24.23
2019-02-18T01:05:42.837Z,24.97
2019-02-18T01:08:26.161Z,25.82
2019-02-18T01:22:36.773Z,22.27
2019-02-18T01:40:58.576Z,25.67
2019-02-18T01:43:33.068Z,26.57
2019-02-18T01:46:07.282Z,25.43
2019-02-18T01:48:41.779Z,24.37
2019-02-18T01:51:15.705Z,24.85
2019-02-18T01:53:49.567Z,25.00
2019-02-18T01:56:23.849Z,25.17
2019-02-18T01:58:57.706Z,25.53
2019-02-18T02:01:32.069Z,23.30
2019-02-18T02:04:08.106Z,24.30
2019-02-18T02:06:42.693Z,25.02
2019-02-18T02:09:16.941Z,23.47
2019-02-18T02:11:51.188Z,23.43
2019-02-18T02:14:26.017Z,23.97
2019-02-18T02:17:01.145Z,23.15
2019-02-18T02:19:35.884Z,22.93
2019-02-18T02:22:10.096Z,23.10
2019-02-18T02:24:45.976Z,22.85
2019-02-18T02:27:20.474Z,20.57
2019-02-18T02:29:54.385Z,21.77
2019-02-18T02:32:28.540Z,20.43
2019-02-18T02:35:02.615Z,19.13
2019-02-18T02:37:36.570Z,21.30
2019-02-18T02:40:12.352Z,20.43
2019-02-18T02:42:47.827Z,20.33
2019-02-18T02:45:21.467Z,18.93
2019-02-18T02:47:56.472Z,17.73
2019-02-18T02:50:30.298Z,19.10
2019-02-18T02:53:04.537Z,17.62
2019-02-18T02:55:38.516Z,19.33
2019-02-18T02:58:13.439Z,16.85
2019-02-18T03:00:48.578Z,17.93
2019-02-18T03:03:22.212Z,19.13
2019-02-18T03:05:56.222Z,18.37
2019-02-18T03:08:30.251Z,17.90
2019-02-18T03:11:04.773Z,18.33
2019-02-18T03:13:38.746Z,18.53
2019-02-18T03:16:13.303Z,17.43
2019-02-18T03:18:48.937Z,18.03
2019-02-18T03:21:22.732Z,17.60
2019-02-18T03:24:00.822Z,17.10
2019-02-18T03:26:32.892Z,15.90
2019-02-18T03:29:21.332Z,15.60
2019-02-18T03:31:55.739Z,16.63
2019-02-18T03:34:32.745Z,15.30
2019-02-18T03:37:06.657Z,16.27
2019-02-18T03:39:40.857Z,14.40
2019-02-18T03:42:14.699Z,13.53
2019-02-18T03:44:48.384Z,14.52
2019-02-18T03:47:23.558Z,14.93
2019-02-18T03:49:57.589Z,14.27
2019-02-18T03:52:31.333Z,13.93
2019-02-18T03:55:05.232Z,13.50
2019-02-18T03:57:40.170Z,13.37
2019-02-18T04:00:18.277Z,14.93
2019-02-18T04:02:51.982Z,13.77
2019-02-18T04:05:27.431Z,13.83
2019-02-18T04:08:01.498Z,12.93
2019-02-18T04:10:35.862Z,14.40
2019-02-18T04:13:11.560Z,13.30
2019-02-18T04:15:48.103Z,13.27
2019-02-18T04:18:23.029Z,14.20
2019-02-18T04:20:56.820Z,14.38
2019-02-18T04:23:30.633Z,13.97
2019-02-18T04:26:04.708Z,14.40
2019-02-18T04:28:38.494Z,12.53
2019-02-18T04:31:12.024Z,12.73
2019-02-18T04:33:48.934Z,14.23
2019-02-18T04:36:23.757Z,13.32
2019-02-18T04:38:59.177Z,13.03
2019-02-18T04:41:52.402Z,14.07
2019-02-18T04:44:28.478Z,13.03
2019-02-18T04:47:01.169Z,13.37
2019-02-18T04:49:34.996Z,13.23
2019-02-18T04:52:11.911Z,13.17
2019-02-18T04:54:45.204Z,13.60
2019-02-18T04:57:20.884Z,12.47
2019-02-18T04:59:54.703Z,13.20
2019-02-18T05:02:30.055Z,13.10
2019-02-18T05:05:04.088Z,14.00
2019-02-18T05:07:39.012Z,12.33
2019-02-18T05:10:14.064Z,12.27
2019-02-18T05:12:47.900Z,12.27
2019-02-18T05:15:21.896Z,14.17
2019-02-18T05:17:57.743Z,12.43
2019-02-18T05:20:31.628Z,13.70
2019-02-18T05:23:05.747Z,13.17
2019-02-18T05:25:40.111Z,15.60
2019-02-18T05:28:14.761Z,14.10
2019-02-18T05:30:48.672Z,14.28
2019-02-18T05:33:22.535Z,12.03
2019-02-18T05:35:58.830Z,12.40
2019-02-18T05:38:33.248Z,13.63
2019-02-18T05:41:07.347Z,13.07
2019-02-18T05:43:41.674Z,13.17
2019-02-18T05:46:15.834Z,13.37
2019-02-18T05:48:50.738Z,11.67
2019-02-18T05:51:25.098Z,12.40
2019-02-18T05:54:07.555Z,12.67
2019-02-18T05:56:41.803Z,12.80
2019-02-18T05:59:15.878Z,11.55
2019-02-18T06:01:50.138Z,12.14
2019-02-18T06:04:26.141Z,13.50
2019-02-18T06:07:00.321Z,13.00
2019-02-18T06:09:35.667Z,13.37
2019-02-18T06:12:09.656Z,14.17
2019-02-18T06:14:43.715Z,14.57
2019-02-18T06:17:37.147Z,15.30
2019-02-18T06:20:12.552Z,15.27
2019-02-18T06:22:50.658Z,16.10
2019-02-18T06:25:25.019Z,17.00
2019-02-18T06:27:59.711Z,17.07
2019-02-18T06:30:36.101Z,18.20
2019-02-18T06:33:10.688Z,19.23
2019-02-18T06:35:50.180Z,20.23
2019-02-18T06:38:23.622Z,19.63
2019-02-18T06:41:04.180Z,18.70
2019-02-18T06:43:58.626Z,23.35
2019-02-18T06:53:29.159Z,16.03
2019-02-18T06:56:05.514Z,16.57
2019-02-18T06:58:40.561Z,16.97
2019-02-18T07:01:16.905Z,14.27
2019-02-18T07:03:49.527Z,13.93
2019-02-18T07:06:25.972Z,15.63
2019-02-18T07:09:00.151Z,14.85
2019-02-18T07:11:36.145Z,14.97
2019-02-18T07:14:10.459Z,13.83
2019-02-18T07:16:49.616Z,13.60
2019-02-18T07:19:45.230Z,13.08
2019-02-18T07:22:19.589Z,13.83
2019-02-18T07:24:53.508Z,13.75
2019-02-18T07:27:27.726Z,14.15
2019-02-18T07:30:02.161Z,14.90
2019-02-18T07:32:50.967Z,15.87
2019-02-18T07:35:38.639Z,16.27
2019-02-18T07:38:33.154Z,16.63
2019-02-18T07:41:17.919Z,15.70
2019-02-18T07:43:55.658Z,16.23
2019-02-18T07:46:36.713Z,16.00
2019-02-18T07:52:37.802Z,16.77
2019-02-18T07:58:16.392Z,17.00
2019-02-18T08:03:49.299Z,16.37
2019-02-18T08:06:32.191Z,16.43
2019-02-18T08:09:11.895Z,15.13
2019-02-18T08:11:47.784Z,14.97
2019-02-18T08:14:33.969Z,15.30
2019-02-18T08:17:10.095Z,15.50
2019-02-18T08:19:46.070Z,15.55
2019-02-18T08:22:26.305Z,16.45
2019-02-18T08:25:00.872Z,15.88
2019-02-18T08:30:28.835Z,16.93
2019-02-18T08:33:07.730Z,18.20
2019-02-18T08:35:48.274Z,18.23
2019-02-18T08:38:28.555Z,19.07
2019-02-18T08:41:15.883Z,19.97
2019-02-18T08:43:50.647Z,22.87
2019-02-18T08:46:33.726Z,22.50
2019-02-18T08:55:17.792Z,22.90
2019-02-18T08:58:05.820Z,22.67
2019-02-18T09:03:50.819Z,22.27
2019-02-18T09:06:30.355Z,22.47
2019-02-18T09:09:23.577Z,22.87
2019-02-18T09:12:01.654Z,21.93
2019-02-18T09:14:37.273Z,22.27
2019-02-18T09:17:14.875Z,20.80
2019-02-18T09:22:48.790Z,23.13
2019-02-18T09:25:25.637Z,20.97
2019-02-18T09:28:18.860Z,22.55
2019-02-18T09:30:45.203Z,21.73
2019-02-18T09:33:21.103Z,23.77
2019-02-18T09:36:04.252Z,23.90
2019-02-18T09:38:50.354Z,23.20
2019-02-18T09:41:26.237Z,24.12
2019-02-18T09:44:02.873Z,24.17
2019-02-18T09:46:45.539Z,24.83
2019-02-18T09:49:22.325Z,24.30
2019-02-18T09:52:03.087Z,24.50
2019-02-18T09:54:44.480Z,24.92
2019-02-18T09:57:23.161Z,24.90
2019-02-18T10:00:07.618Z,25.37
2019-02-18T10:02:47.330Z,25.83
2019-02-18T10:05:24.516Z,25.57
2019-02-18T10:08:04.464Z,26.62
2019-02-18T10:10:55.138Z,27.60
2019-02-18T10:13:28.460Z,26.15
2019-02-18T10:16:07.769Z,29.77
2019-02-18T10:18:57.181Z,29.70
2019-02-18T10:21:32.099Z,31.07
2019-02-18T10:24:07.360Z,30.97
2019-02-18T10:26:46.165Z,32.23
2019-02-18T10:35:15.203Z,30.90
2019-02-18T10:40:46.720Z,30.40
2019-02-18T10:43:32.230Z,31.33
2019-02-18T10:46:05.327Z,30.48
2019-02-18T10:48:47.170Z,31.60
2019-02-18T10:51:24.629Z,30.40
2019-02-18T10:54:12.601Z,30.23
2019-02-18T10:56:56.029Z,30.00
2019-02-18T10:59:41.530Z,31.12
2019-02-18T11:02:19.250Z,29.97
2019-02-18T11:05:01.115Z,31.63
2019-02-18T11:07:38.840Z,32.25
2019-02-18T11:10:19.801Z,32.23
2019-02-18T11:15:56.375Z,32.23
2019-02-18T11:18:36.125Z,32.93
2019-02-18T11:21:12.220Z,33.33
2019-02-18T11:23:48.446Z,33.92
2019-02-18T11:26:31.702Z,36.23
2019-02-18T11:29:10.435Z,34.25
2019-02-18T11:32:06.615Z,35.63
2019-02-18T11:34:41.158Z,36.80
2019-02-18T11:37:19.039Z,36.05
2019-02-18T11:39:54.155Z,37.60
2019-02-18T11:42:37.522Z,39.23
2019-02-18T11:45:15.103Z,39.17
2019-02-18T11:47:51.453Z,40.97
2019-02-18T11:50:30.551Z,42.07
2019-02-18T11:53:14.140Z,40.78
2019-02-18T11:56:12.237Z,42.70
2019-02-18T11:58:55.480Z,42.93
2019-02-18T12:01:39.440Z,45.50
2019-02-18T12:07:10.083Z,43.40
2019-02-18T12:12:39.556Z,45.83
2019-02-18T12:15:21.450Z,45.17
2019-02-18T12:18:01.388Z,44.20
2019-02-18T12:20:38.583Z,43.77
2019-02-18T12:23:18.692Z,45.40
2019-02-18T12:25:54.797Z,44.93
2019-02-18T12:28:33.099Z,44.37
2019-02-18T12:31:12.983Z,44.38
2019-02-18T12:34:05.068Z,43.27
2019-02-18T12:36:41.363Z,44.20
2019-02-18T12:39:22.576Z,43.73
2019-02-18T12:41:57.066Z,47.27
2019-02-18T12:44:36.179Z,46.30
2019-02-18T12:47:28.873Z,45.13
2019-02-18T12:50:16.662Z,48.85
2019-02-18T12:52:56.223Z,48.15
2019-02-18T12:55:36.219Z,49.97
2019-02-18T12:58:30.063Z,49.53
2019-02-18T13:01:05.775Z,53.33
2019-02-18T13:03:59.053Z,52.37
2019-02-18T13:06:39.091Z,53.63
2019-02-18T13:09:20.883Z,53.43
2019-02-18T13:11:59.704Z,53.40
2019-02-18T13:14:36.587Z,55.60
2019-02-18T13:17:14.390Z,55.70
2019-02-18T13:19:51.941Z,54.80
2019-02-18T13:22:30.062Z,53.00
2019-02-18T13:25:09.323Z,55.23
2019-02-18T13:27:45.887Z,54.13
2019-02-18T13:30:23.725Z,56.57
2019-02-18T13:33:02.541Z,55.20
2019-02-18T13:35:38.430Z,56.13
2019-02-18T13:38:16.482Z,54.87
2019-02-18T13:40:54.558Z,55.67
2019-02-18T13:43:31.185Z,55.63
2019-02-18T13:46:10.441Z,54.88
2019-02-18T13:48:46.375Z,55.00
2019-02-18T13:51:24.246Z,54.27
2019-02-18T13:54:06.744Z,55.15
2019-02-18T13:56:44.799Z,58.57
2019-02-18T13:59:22.781Z,57.63
2019-02-18T14:01:59.041Z,57.95
2019-02-18T14:04:36.789Z,57.13
2019-02-18T14:07:14.477Z,57.40
2019-02-18T14:10:02.778Z,56.68
2019-02-18T14:12:42.226Z,57.87
2019-02-18T14:15:17.109Z,58.33
2019-02-18T14:17:59.963Z,59.07
2019-02-18T14:20:43.747Z,56.07
2019-02-18T14:23:20.527Z,56.57
2019-02-18T14:26:05.546Z,57.93
2019-02-18T14:28:41.367Z,60.20
2019-02-18T14:31:23.960Z,57.87
2019-02-18T14:34:07.070Z,59.27
2019-02-18T14:36:50.605Z,56.25
2019-02-18T14:39:26.806Z,58.10
2019-02-18T14:42:24.820Z,57.87
2019-02-18T14:45:02.452Z,58.28
2019-02-18T14:47:41.794Z,59.20
2019-02-18T14:50:19.412Z,58.63
2019-02-18T14:52:56.805Z,60.17
2019-02-18T14:55:35.728Z,61.13
2019-02-18T14:58:11.928Z,60.00
2019-02-18T15:00:49.731Z,60.43
2019-02-18T15:03:27.047Z,59.07
2019-02-18T15:06:07.177Z,60.37
2019-02-18T15:08:49.457Z,59.10
2019-02-18T15:11:26.619Z,60.44
2019-02-18T15:14:02.396Z,60.87
2019-02-18T15:16:40.340Z,61.15
2019-02-18T15:19:15.890Z,60.13
2019-02-18T15:21:53.385Z,60.37
2019-02-18T15:24:31.511Z,60.43
2019-02-18T15:27:04.576Z,60.47
2019-02-18T15:29:39.295Z,59.90
2019-02-18T15:32:14.066Z,59.73
2019-02-18T15:34:49.133Z,58.67
2019-02-18T15:37:29.720Z,61.77
2019-02-18T15:40:04.542Z,58.03
2019-02-18T15:42:42.289Z,59.13
2019-02-18T15:45:16.156Z,58.45
2019-02-18T15:47:50.935Z,58.13
2019-02-18T15:50:26.169Z,56.53
2019-02-18T15:53:02.361Z,61.03
2019-02-18T15:55:37.195Z,58.20
2019-02-18T15:58:13.936Z,59.83
2019-02-18T16:00:49.495Z,59.20
2019-02-18T16:03:27.123Z,58.63
2019-02-18T16:06:00.329Z,59.10
2019-02-18T16:08:35.753Z,60.83
2019-02-18T16:11:10.559Z,64.73
2019-02-18T16:13:45.639Z,67.00
2019-02-18T16:16:26.924Z,67.47
2019-02-18T16:19:02.374Z,61.23
2019-02-18T16:21:40.229Z,63.20
2019-02-18T16:24:20.026Z,65.20
2019-02-18T16:26:52.031Z,71.27
2019-02-18T16:29:27.331Z,66.83
2019-02-18T16:32:04.813Z,64.67
2019-02-18T16:34:39.851Z,64.97
2019-02-18T16:37:14.968Z,66.07
2019-02-18T16:39:49.693Z,72.50
2019-02-18T16:42:25.126Z,68.07
2019-02-18T16:45:00.157Z,73.83
2019-02-18T16:47:34.817Z,63.10
2019-02-18T16:50:09.912Z,66.65
2019-02-18T16:53:03.838Z,65.03
2019-02-18T16:55:38.866Z,68.43
2019-02-18T16:58:13.602Z,67.50
2019-02-18T17:00:55.810Z,64.13
2019-02-18T17:03:26.811Z,59.30
2019-02-18T17:06:01.983Z,58.40
2019-02-18T17:08:36.818Z,55.40
2019-02-18T17:11:11.853Z,53.97
2019-02-18T17:13:46.849Z,53.37
2019-02-18T17:16:22.015Z,51.40
2019-02-18T17:19:02.264Z,52.17
2019-02-18T17:21:35.431Z,51.90
2019-02-18T17:24:28.695Z,51.83
2019-02-18T17:27:05.153Z,51.42
2019-02-18T17:29:40.042Z,51.83
2019-02-18T17:32:14.480Z,51.07
2019-02-18T17:34:49.454Z,51.27
2019-02-18T17:37:23.854Z,51.93
2019-02-18T17:40:00.317Z,52.27
2019-02-18T17:42:37.240Z,50.73
2019-02-18T17:45:16.157Z,52.40
2019-02-18T17:47:50.558Z,50.93
2019-02-18T17:50:26.755Z,48.00
2019-02-18T17:53:03.619Z,50.45
2019-02-18T17:55:37.979Z,47.88
2019-02-18T17:58:12.863Z,47.63
2019-02-18T18:00:47.449Z,48.90
2019-02-18T18:03:25.062Z,48.27
2019-02-18T18:05:57.406Z,48.33
2019-02-18T18:08:32.036Z,47.83
2019-02-18T18:11:08.307Z,48.37
2019-02-18T18:13:43.439Z,47.47
2019-02-18T18:16:28.068Z,47.83
2019-02-18T18:19:20.315Z,45.92
2019-02-18T18:22:00.673Z,48.63
2019-02-18T18:24:34.154Z,47.53
2019-02-18T18:27:10.166Z,48.67
2019-02-18T18:29:47.777Z,46.77
2019-02-18T18:32:25.822Z,49.33
2019-02-18T18:34:57.947Z,50.63
2019-02-18T18:37:32.578Z,48.13
2019-02-18T18:40:08.433Z,49.48
2019-02-18T18:42:47.320Z,48.97
2019-02-18T18:45:23.142Z,50.77
2019-02-18T18:48:00.272Z,49.88
2019-02-18T18:50:35.700Z,50.80
2019-02-18T18:53:11.422Z,50.30
2019-02-18T18:55:46.570Z,49.83
2019-02-18T18:58:27.547Z,50.33
2019-02-18T19:01:02.148Z,50.37
2019-02-18T19:03:38.189Z,50.57
2019-02-18T19:06:13.556Z,51.13
2019-02-18T19:08:48.811Z,50.88
2019-02-18T19:11:23.582Z,49.77
2019-02-18T19:13:58.096Z,49.17
2019-02-18T19:16:32.738Z,50.57
2019-02-18T19:19:10.151Z,50.50
2019-02-18T19:21:46.856Z,49.37
2019-02-18T19:24:27.923Z,49.97
2019-02-18T19:27:20.696Z,49.42
2019-02-18T19:29:55.402Z,52.10
2019-02-18T19:32:30.192Z,52.40
2019-02-18T19:35:04.975Z,51.40
2019-02-18T19:37:39.575Z,51.07
2019-02-18T19:40:16.255Z,52.33
2019-02-18T19:42:53.378Z,53.00
2019-02-18T19:45:30.565Z,53.43
2019-02-18T19:48:05.189Z,52.80
2019-02-18T19:50:39.593Z,53.87
2019-02-18T19:53:14.463Z,53.20
2019-02-18T19:55:53.501Z,52.10
2019-02-18T19:58:28.627Z,52.77
2019-02-18T20:01:05.465Z,53.00
2019-02-18T20:03:44.005Z,52.63
2019-02-18T20:06:23.929Z,50.80
2019-02-18T20:08:59.166Z,53.00
2019-02-18T20:11:37.719Z,53.27
2019-02-18T20:14:13.530Z,51.53
2019-02-18T20:16:52.002Z,50.80
2019-02-18T20:19:26.564Z,52.30
2019-02-18T20:22:02.291Z,52.60
2019-02-18T20:24:37.403Z,52.22
2019-02-18T20:27:11.879Z,50.55
2019-02-18T20:29:46.453Z,52.03
2019-02-18T20:32:21.062Z,53.17
2019-02-18T20:34:59.040Z,52.10
2019-02-18T20:37:34.844Z,52.13
2019-02-18T20:40:10.002Z,51.13
2019-02-18T20:43:04.373Z,51.53
2019-02-18T20:45:39.002Z,52.70
2019-02-18T20:48:16.986Z,51.30
2019-02-18T20:50:51.746Z,51.87
2019-02-18T20:53:29.726Z,49.53
2019-02-18T20:56:04.575Z,48.10
2019-02-18T20:58:39.403Z,50.20
2019-02-18T21:04:16.053Z,50.55
2019-02-18T21:06:56.568Z,51.30
2019-02-18T21:09:30.763Z,50.00
2019-02-18T21:12:05.070Z,49.53
2019-02-18T21:14:39.770Z,49.37
2019-02-18T21:17:14.370Z,50.50
2019-02-18T21:19:48.672Z,49.70
2019-02-18T21:22:25.340Z,50.93
2019-02-18T21:25:02.294Z,48.70
2019-02-18T21:27:36.534Z,50.40
2019-02-18T21:30:13.404Z,47.37
2019-02-18T21:32:47.961Z,50.30
2019-02-18T21:35:22.459Z,47.93
2019-02-18T21:37:56.603Z,48.80
2019-02-18T21:40:30.897Z,47.83
2019-02-18T21:43:05.333Z,49.70
2019-02-18T21:45:39.760Z,48.23
2019-02-18T21:48:14.342Z,48.00
2019-02-18T21:50:48.877Z,47.37
2019-02-18T21:53:23.462Z,47.40
2019-02-18T21:55:59.843Z,47.23
2019-02-18T21:58:34.314Z,49.53
2019-02-18T22:01:08.989Z,49.33
2019-02-18T22:03:43.919Z,48.10
2019-02-18T22:06:18.947Z,47.70
2019-02-18T22:08:53.231Z,48.20
2019-02-18T22:11:29.029Z,47.70
2019-02-18T22:14:04.163Z,44.27
2019-02-18T22:16:38.765Z,46.63
2019-02-18T22:19:15.591Z,45.23
2019-02-18T22:21:49.700Z,43.90
2019-02-18T22:24:26.507Z,45.37
2019-02-18T22:27:15.928Z,44.80
2019-02-18T22:29:50.420Z,44.67
2019-02-18T22:32:25.717Z,43.97
2019-02-18T22:35:01.859Z,41.73
2019-02-18T22:37:35.998Z,41.63
2019-02-18T22:40:11.860Z,43.67
2019-02-18T22:42:45.974Z,43.13
2019-02-18T22:45:20.209Z,43.50
2019-02-18T22:47:54.322Z,42.17
2019-02-18T22:50:28.286Z,44.00
2019-02-18T22:53:02.599Z,43.45
2019-02-18T22:55:36.486Z,42.55
2019-02-18T22:58:10.129Z,43.67
2019-02-18T23:00:46.652Z,44.90
2019-02-18T23:03:20.443Z,44.07
2019-02-18T23:05:54.245Z,44.97
2019-02-18T23:08:27.608Z,45.43
2019-02-18T23:11:05.392Z,45.83
2019-02-18T23:13:39.029Z,44.63
2019-02-18T23:16:12.920Z,45.73
2019-02-18T23:18:48.042Z,44.40
2019-02-18T23:21:24.301Z,44.83
2019-02-18T23:23:58.212Z,44.60
2019-02-18T23:26:32.480Z,45.90
2019-02-18T23:29:06.297Z,45.70
2019-02-18T23:31:41.947Z,45.23
2019-02-18T23:34:15.882Z,45.67
2019-02-18T23:36:51.874Z,44.87
2019-02-18T23:39:25.867Z,45.67
2019-02-18T23:41:59.443Z,44.50
2019-02-18T23:44:33.085Z,44.37
2019-02-18T23:47:09.838Z,44.83
2019-02-18T23:49:43.490Z,45.88
2019-02-18T23:52:17.337Z,44.27
2019-02-18T23:54:52.746Z,45.43
2019-02-18T23:57:26.366Z,45.80
